sensor_id;sensor_type;location;lat;lon;timestamp;temperature;humidity
3919;DHT22;1974;48.670;8.994;2023-01-13T00:01:38;8.80;99.90
3919;DHT22;1974;48.670;8.994;2023-01-13T00:04:05;8.80;99.90
3919;DHT22;1974;48.670;8.994;2023-01-13T00:06:31;8.80;99.90
3919;DHT22;1974;48.670;8.994;2023-01-13T00:08:58;8.80;99.90
3919;DHT22;1974;48.670;8.994;2023-01-13T00:11:25;8.70;99.90
3919;DHT22;1974;48.670;8.994;2023-01-13T00:13:53;8.70;99.90
3919;DHT22;1974;48.670;8.994;2023-01-13T00:16:20;8.70;99.90
3919;DHT22;1974;48.670;8.994;2023-01-13T00:18:47;8.60;99.90
3919;DHT22;1974;48.670;8.994;2023-01-13T00:21:16;8.60;99.90
3919;DHT22;1974;48.670;8.994;2023-01-13T00:23:44;8.60;99.90
3919;DHT22;1974;48.670;8.994;2023-01-13T00:26:13;8.70;99.90
3919;DHT22;1974;48.670;8.994;2023-01-13T00:28:40;8.70;99.90
3919;DHT22;1974;48.670;8.994;2023-01-13T00:31:09;8.70;99.90
3919;DHT22;1974;48.670;8.994;2023-01-13T00:33:37;8.70;99.90
3919;DHT22;1974;48.670;8.994;2023-01-13T00:36:05;8.70;99.90
3919;DHT22;1974;48.670;8.994;2023-01-13T00:38:34;8.80;99.90
3919;DHT22;1974;48.670;8.994;2023-01-13T00:41:03;8.80;99.90
3919;DHT22;1974;48.670;8.994;2023-01-13T00:43:31;8.90;99.90
3919;DHT22;1974;48.670;8.994;2023-01-13T00:45:58;8.90;99.90
3919;DHT22;1974;48.670;8.994;2023-01-13T00:48:27;8.90;99.90
3919;DHT22;1974;48.670;8.994;2023-01-13T00:50:54;8.90;99.90
3919;DHT22;1974;48.670;8.994;2023-01-13T00:53:21;8.90;99.90
3919;DHT22;1974;48.670;8.994;2023-01-13T00:55:48;8.90;99.90
3919;DHT22;1974;48.670;8.994;2023-01-13T00:58:15;8.90;99.90
3919;DHT22;1974;48.670;8.994;2023-01-13T01:00:42;9.00;99.90
3919;DHT22;1974;48.670;8.994;2023-01-13T01:03:10;9.00;99.90
3919;DHT22;1974;48.670;8.994;2023-01-13T01:05:38;9.00;99.90
3919;DHT22;1974;48.670;8.994;2023-01-13T01:08:05;9.00;99.90
3919;DHT22;1974;48.670;8.994;2023-01-13T01:10:32;8.90;99.90
3919;DHT22;1974;48.670;8.994;2023-01-13T01:12:58;9.00;99.90
3919;DHT22;1974;48.670;8.994;2023-01-13T01:15:25;9.00;99.90
3919;DHT22;1974;48.670;8.994;2023-01-13T01:17:52;8.90;99.90
3919;DHT22;1974;48.670;8.994;2023-01-13T01:20:18;9.10;99.90
3919;DHT22;1974;48.670;8.994;2023-01-13T01:22:47;9.10;99.90
3919;DHT22;1974;48.670;8.994;2023-01-13T01:25:13;9.00;99.90
3919;DHT22;1974;48.670;8.994;2023-01-13T01:27:40;9.00;99.90
3919;DHT22;1974;48.670;8.994;2023-01-13T01:30:08;9.00;99.90
3919;DHT22;1974;48.670;8.994;2023-01-13T01:32:35;9.00;99.90
3919;DHT22;1974;48.670;8.994;2023-01-13T01:35:02;9.10;99.90
3919;DHT22;1974;48.670;8.994;2023-01-13T01:37:29;9.10;99.90
3919;DHT22;1974;48.670;8.994;2023-01-13T01:39:57;9.10;99.90
3919;DHT22;1974;48.670;8.994;2023-01-13T01:42:24;9.10;99.90
3919;DHT22;1974;48.670;8.994;2023-01-13T01:45:14;9.10;99.90
3919;DHT22;1974;48.670;8.994;2023-01-13T01:47:43;9.00;99.90
3919;DHT22;1974;48.670;8.994;2023-01-13T01:50:11;9.00;99.90
3919;DHT22;1974;48.670;8.994;2023-01-13T01:52:39;8.90;99.90
3919;DHT22;1974;48.670;8.994;2023-01-13T01:55:13;8.80;99.90
3919;DHT22;1974;48.670;8.994;2023-01-13T01:57:45;8.70;99.90
3919;DHT22;1974;48.670;8.994;2023-01-13T02:00:14;8.70;99.90
3919;DHT22;1974;48.670;8.994;2023-01-13T02:02:43;8.70;99.90
3919;DHT22;1974;48.670;8.994;2023-01-13T02:05:12;8.70;99.90
3919;DHT22;1974;48.670;8.994;2023-01-13T02:07:40;8.70;99.90
3919;DHT22;1974;48.670;8.994;2023-01-13T02:10:13;8.60;99.90
3919;DHT22;1974;48.670;8.994;2023-01-13T02:12:41;8.60;99.90
3919;DHT22;1974;48.670;8.994;2023-01-13T02:15:11;8.70;99.90
3919;DHT22;1974;48.670;8.994;2023-01-13T02:17:55;8.80;99.90
3919;DHT22;1974;48.670;8.994;2023-01-13T02:23:55;8.80;99.90
3919;DHT22;1974;48.670;8.994;2023-01-13T02:27:33;8.90;99.90
3919;DHT22;1974;48.670;8.994;2023-01-13T02:30:17;8.90;99.90
3919;DHT22;1974;48.670;8.994;2023-01-13T02:33:27;8.90;99.90
3919;DHT22;1974;48.670;8.994;2023-01-13T02:36:00;8.90;99.90
3919;DHT22;1974;48.670;8.994;2023-01-13T02:38:31;8.90;99.90
3919;DHT22;1974;48.670;8.994;2023-01-13T02:41:02;8.90;99.90
3919;DHT22;1974;48.670;8.994;2023-01-13T02:43:46;8.90;99.90
3919;DHT22;1974;48.670;8.994;2023-01-13T02:46:39;8.90;99.90
3919;DHT22;1974;48.670;8.994;2023-01-13T02:49:11;8.90;99.90
3919;DHT22;1974;48.670;8.994;2023-01-13T02:51:40;8.90;99.90
3919;DHT22;1974;48.670;8.994;2023-01-13T02:54:12;8.90;99.90
3919;DHT22;1974;48.670;8.994;2023-01-13T02:56:42;8.90;99.90
3919;DHT22;1974;48.670;8.994;2023-01-13T02:59:10;8.80;99.90
3919;DHT22;1974;48.670;8.994;2023-01-13T03:01:40;8.90;99.90
3919;DHT22;1974;48.670;8.994;2023-01-13T03:04:11;8.90;99.90
3919;DHT22;1974;48.670;8.994;2023-01-13T03:06:46;8.90;99.90
3919;DHT22;1974;48.670;8.994;2023-01-13T03:09:19;8.90;99.90
3919;DHT22;1974;48.670;8.994;2023-01-13T03:11:58;8.80;99.90
3919;DHT22;1974;48.670;8.994;2023-01-13T03:14:35;8.80;99.90
3919;DHT22;1974;48.670;8.994;2023-01-13T03:17:17;8.80;99.90
3919;DHT22;1974;48.670;8.994;2023-01-13T03:19:54;8.80;99.90
3919;DHT22;1974;48.670;8.994;2023-01-13T03:22:29;8.80;99.90
3919;DHT22;1974;48.670;8.994;2023-01-13T03:25:01;8.80;99.90
3919;DHT22;1974;48.670;8.994;2023-01-13T03:27:31;8.80;99.90
3919;DHT22;1974;48.670;8.994;2023-01-13T03:30:05;8.80;99.90
3919;DHT22;1974;48.670;8.994;2023-01-13T03:32:36;9.00;99.90
3919;DHT22;1974;48.670;8.994;2023-01-13T03:35:10;8.90;99.90
3919;DHT22;1974;48.670;8.994;2023-01-13T03:37:42;8.90;99.90
3919;DHT22;1974;48.670;8.994;2023-01-13T03:40:14;9.00;99.90
3919;DHT22;1974;48.670;8.994;2023-01-13T03:42:44;9.00;99.90
3919;DHT22;1974;48.670;8.994;2023-01-13T03:45:33;9.00;99.90
3919;DHT22;1974;48.670;8.994;2023-01-13T03:48:04;8.90;99.90
3919;DHT22;1974;48.670;8.994;2023-01-13T03:50:36;9.00;99.90
3919;DHT22;1974;48.670;8.994;2023-01-13T03:53:08;8.90;99.90
3919;DHT22;1974;48.670;8.994;2023-01-13T03:55:40;8.90;99.90
3919;DHT22;1974;48.670;8.994;2023-01-13T03:58:12;9.00;99.90
3919;DHT22;1974;48.670;8.994;2023-01-13T04:00:45;9.00;99.90
3919;DHT22;1974;48.670;8.994;2023-01-13T04:03:19;9.00;99.90
3919;DHT22;1974;48.670;8.994;2023-01-13T04:05:52;9.00;99.90
3919;DHT22;1974;48.670;8.994;2023-01-13T04:08:24;9.10;99.90
3919;DHT22;1974;48.670;8.994;2023-01-13T04:10:54;9.00;99.90
3919;DHT22;1974;48.670;8.994;2023-01-13T04:13:25;9.10;99.90
3919;DHT22;1974;48.670;8.994;2023-01-13T04:15:54;9.00;99.90
3919;DHT22;1974;48.670;8.994;2023-01-13T04:18:23;9.00;99.90
3919;DHT22;1974;48.670;8.994;2023-01-13T04:20:52;9.00;99.90
3919;DHT22;1974;48.670;8.994;2023-01-13T04:23:20;9.00;99.90
3919;DHT22;1974;48.670;8.994;2023-01-13T04:25:47;9.00;99.90
3919;DHT22;1974;48.670;8.994;2023-01-13T04:28:16;9.00;99.90
3919;DHT22;1974;48.670;8.994;2023-01-13T04:30:43;9.10;99.90
3919;DHT22;1974;48.670;8.994;2023-01-13T04:33:11;9.00;99.90
3919;DHT22;1974;48.670;8.994;2023-01-13T04:35:40;9.10;99.90
3919;DHT22;1974;48.670;8.994;2023-01-13T04:38:09;9.10;99.90
3919;DHT22;1974;48.670;8.994;2023-01-13T04:40:37;9.00;99.90
3919;DHT22;1974;48.670;8.994;2023-01-13T04:43:04;9.10;99.90
3919;DHT22;1974;48.670;8.994;2023-01-13T04:45:31;9.10;99.90
3919;DHT22;1974;48.670;8.994;2023-01-13T04:47:58;9.10;99.90
3919;DHT22;1974;48.670;8.994;2023-01-13T04:50:25;9.20;99.90
3919;DHT22;1974;48.670;8.994;2023-01-13T04:52:53;9.10;99.90
3919;DHT22;1974;48.670;8.994;2023-01-13T04:55:22;9.20;99.90
3919;DHT22;1974;48.670;8.994;2023-01-13T04:57:48;9.10;99.90
3919;DHT22;1974;48.670;8.994;2023-01-13T05:00:17;9.10;99.90
3919;DHT22;1974;48.670;8.994;2023-01-13T05:02:45;9.20;99.90
3919;DHT22;1974;48.670;8.994;2023-01-13T05:05:11;9.20;99.90
3919;DHT22;1974;48.670;8.994;2023-01-13T05:07:38;9.10;99.90
3919;DHT22;1974;48.670;8.994;2023-01-13T05:10:07;9.10;99.90
3919;DHT22;1974;48.670;8.994;2023-01-13T05:12:34;9.10;99.90
3919;DHT22;1974;48.670;8.994;2023-01-13T05:15:18;9.10;99.90
3919;DHT22;1974;48.670;8.994;2023-01-13T05:18:03;9.10;99.90
3919;DHT22;1974;48.670;8.994;2023-01-13T05:20:30;9.10;99.90
3919;DHT22;1974;48.670;8.994;2023-01-13T05:22:56;9.00;99.90
3919;DHT22;1974;48.670;8.994;2023-01-13T05:25:42;9.00;99.90
3919;DHT22;1974;48.670;8.994;2023-01-13T05:28:09;9.00;99.90
3919;DHT22;1974;48.670;8.994;2023-01-13T05:30:37;9.00;99.90
3919;DHT22;1974;48.670;8.994;2023-01-13T05:33:06;9.00;99.90
3919;DHT22;1974;48.670;8.994;2023-01-13T05:35:33;8.90;99.90
3919;DHT22;1974;48.670;8.994;2023-01-13T05:38:00;9.00;99.90
3919;DHT22;1974;48.670;8.994;2023-01-13T05:40:27;9.10;99.90
3919;DHT22;1974;48.670;8.994;2023-01-13T05:43:14;9.00;99.90
3919;DHT22;1974;48.670;8.994;2023-01-13T05:45:50;9.00;99.90
3919;DHT22;1974;48.670;8.994;2023-01-13T05:48:18;9.10;99.90
3919;DHT22;1974;48.670;8.994;2023-01-13T05:50:46;9.20;99.90
3919;DHT22;1974;48.670;8.994;2023-01-13T05:53:14;9.10;99.90
3919;DHT22;1974;48.670;8.994;2023-01-13T05:55:41;9.10;99.90
3919;DHT22;1974;48.670;8.994;2023-01-13T05:58:08;9.10;99.90
3919;DHT22;1974;48.670;8.994;2023-01-13T06:00:37;9.00;99.90
3919;DHT22;1974;48.670;8.994;2023-01-13T06:03:04;9.00;99.90
3919;DHT22;1974;48.670;8.994;2023-01-13T06:05:31;9.00;99.90
3919;DHT22;1974;48.670;8.994;2023-01-13T06:07:58;9.10;99.90
3919;DHT22;1974;48.670;8.994;2023-01-13T06:10:25;9.10;99.90
3919;DHT22;1974;48.670;8.994;2023-01-13T06:12:53;9.00;99.90
3919;DHT22;1974;48.670;8.994;2023-01-13T06:15:20;9.00;99.90
3919;DHT22;1974;48.670;8.994;2023-01-13T06:17:49;9.10;99.90
3919;DHT22;1974;48.670;8.994;2023-01-13T06:20:16;9.10;99.90
3919;DHT22;1974;48.670;8.994;2023-01-13T06:22:46;9.00;99.90
3919;DHT22;1974;48.670;8.994;2023-01-13T06:25:18;9.10;99.90
3919;DHT22;1974;48.670;8.994;2023-01-13T06:27:48;9.20;99.90
3919;DHT22;1974;48.670;8.994;2023-01-13T06:30:15;9.20;99.90
3919;DHT22;1974;48.670;8.994;2023-01-13T06:32:45;9.10;99.90
3919;DHT22;1974;48.670;8.994;2023-01-13T06:35:17;9.00;99.90
3919;DHT22;1974;48.670;8.994;2023-01-13T06:37:44;9.10;99.90
3919;DHT22;1974;48.670;8.994;2023-01-13T06:40:13;9.10;99.90
3919;DHT22;1974;48.670;8.994;2023-01-13T06:42:40;9.10;99.90
3919;DHT22;1974;48.670;8.994;2023-01-13T06:45:26;9.10;99.90
3919;DHT22;1974;48.670;8.994;2023-01-13T06:47:55;9.00;99.90
3919;DHT22;1974;48.670;8.994;2023-01-13T06:50:25;9.00;99.90
3919;DHT22;1974;48.670;8.994;2023-01-13T06:52:52;9.00;99.90
3919;DHT22;1974;48.670;8.994;2023-01-13T06:55:19;8.90;99.90
3919;DHT22;1974;48.670;8.994;2023-01-13T06:57:47;8.90;99.90
3919;DHT22;1974;48.670;8.994;2023-01-13T07:00:15;8.90;99.90
3919;DHT22;1974;48.670;8.994;2023-01-13T07:02:42;8.90;99.90
3919;DHT22;1974;48.670;8.994;2023-01-13T07:05:08;8.90;99.90
3919;DHT22;1974;48.670;8.994;2023-01-13T07:07:37;9.00;99.90
3919;DHT22;1974;48.670;8.994;2023-01-13T07:10:05;9.00;99.90
3919;DHT22;1974;48.670;8.994;2023-01-13T07:12:32;9.10;99.90
3919;DHT22;1974;48.670;8.994;2023-01-13T07:15:19;9.20;99.90
3919;DHT22;1974;48.670;8.994;2023-01-13T07:17:45;9.20;99.90
3919;DHT22;1974;48.670;8.994;2023-01-13T07:20:12;9.20;99.90
3919;DHT22;1974;48.670;8.994;2023-01-13T07:22:40;9.10;99.90
3919;DHT22;1974;48.670;8.994;2023-01-13T07:25:08;9.10;99.90
3919;DHT22;1974;48.670;8.994;2023-01-13T07:27:35;9.10;99.90
3919;DHT22;1974;48.670;8.994;2023-01-13T07:30:01;9.10;99.90
3919;DHT22;1974;48.670;8.994;2023-01-13T07:32:30;9.10;99.90
3919;DHT22;1974;48.670;8.994;2023-01-13T07:34:57;9.10;99.90
3919;DHT22;1974;48.670;8.994;2023-01-13T07:37:29;9.10;99.90
3919;DHT22;1974;48.670;8.994;2023-01-13T07:39:57;9.20;99.90
3919;DHT22;1974;48.670;8.994;2023-01-13T07:42:24;9.20;99.90
3919;DHT22;1974;48.670;8.994;2023-01-13T07:45:05;9.20;99.90
3919;DHT22;1974;48.670;8.994;2023-01-13T07:47:32;9.20;99.90
3919;DHT22;1974;48.670;8.994;2023-01-13T07:49:59;9.30;99.90
3919;DHT22;1974;48.670;8.994;2023-01-13T07:52:26;9.30;99.90
3919;DHT22;1974;48.670;8.994;2023-01-13T07:54:52;9.30;99.90
3919;DHT22;1974;48.670;8.994;2023-01-13T07:57:21;9.40;99.90
3919;DHT22;1974;48.670;8.994;2023-01-13T07:59:47;9.40;99.90
3919;DHT22;1974;48.670;8.994;2023-01-13T08:02:14;9.30;99.90
3919;DHT22;1974;48.670;8.994;2023-01-13T08:04:41;9.30;99.90
3919;DHT22;1974;48.670;8.994;2023-01-13T08:07:07;9.40;99.90
3919;DHT22;1974;48.670;8.994;2023-01-13T08:09:34;9.30;99.90
3919;DHT22;1974;48.670;8.994;2023-01-13T08:12:01;9.30;99.90
3919;DHT22;1974;48.670;8.994;2023-01-13T08:14:46;9.50;99.90
3919;DHT22;1974;48.670;8.994;2023-01-13T08:17:14;9.60;99.90
3919;DHT22;1974;48.670;8.994;2023-01-13T08:19:41;9.70;99.90
3919;DHT22;1974;48.670;8.994;2023-01-13T08:22:08;9.70;99.90
3919;DHT22;1974;48.670;8.994;2023-01-13T08:24:34;9.70;99.90
3919;DHT22;1974;48.670;8.994;2023-01-13T08:27:01;9.70;99.90
3919;DHT22;1974;48.670;8.994;2023-01-13T08:29:28;9.50;99.90
3919;DHT22;1974;48.670;8.994;2023-01-13T08:31:56;9.20;99.90
3919;DHT22;1974;48.670;8.994;2023-01-13T08:34:23;9.20;99.90
3919;DHT22;1974;48.670;8.994;2023-01-13T08:36:49;9.10;99.90
3919;DHT22;1974;48.670;8.994;2023-01-13T08:39:16;9.00;99.90
3919;DHT22;1974;48.670;8.994;2023-01-13T08:41:44;8.90;99.90
3919;DHT22;1974;48.670;8.994;2023-01-13T08:44:24;8.80;99.90
3919;DHT22;1974;48.670;8.994;2023-01-13T08:46:51;8.80;99.90
3919;DHT22;1974;48.670;8.994;2023-01-13T08:49:21;8.80;99.90
3919;DHT22;1974;48.670;8.994;2023-01-13T08:51:48;8.80;99.90
3919;DHT22;1974;48.670;8.994;2023-01-13T08:54:15;8.70;99.90
3919;DHT22;1974;48.670;8.994;2023-01-13T08:56:43;8.70;99.90
3919;DHT22;1974;48.670;8.994;2023-01-13T08:59:11;8.70;99.90
3919;DHT22;1974;48.670;8.994;2023-01-13T09:01:39;8.70;99.90
3919;DHT22;1974;48.670;8.994;2023-01-13T09:04:10;8.60;99.90
3919;DHT22;1974;48.670;8.994;2023-01-13T09:06:40;8.60;99.90
3919;DHT22;1974;48.670;8.994;2023-01-13T09:09:07;8.60;99.90
3919;DHT22;1974;48.670;8.994;2023-01-13T09:11:36;8.50;99.90
3919;DHT22;1974;48.670;8.994;2023-01-13T09:14:35;8.50;99.90
3919;DHT22;1974;48.670;8.994;2023-01-13T09:17:02;8.50;99.90
3919;DHT22;1974;48.670;8.994;2023-01-13T09:19:29;8.50;99.90
3919;DHT22;1974;48.670;8.994;2023-01-13T09:21:57;8.60;99.90
3919;DHT22;1974;48.670;8.994;2023-01-13T09:24:24;8.60;99.90
3919;DHT22;1974;48.670;8.994;2023-01-13T09:26:51;8.60;99.90
3919;DHT22;1974;48.670;8.994;2023-01-13T09:29:18;8.60;99.90
3919;DHT22;1974;48.670;8.994;2023-01-13T09:31:46;8.50;99.90
3919;DHT22;1974;48.670;8.994;2023-01-13T09:34:15;8.50;99.90
3919;DHT22;1974;48.670;8.994;2023-01-13T09:37:01;8.50;99.90
3919;DHT22;1974;48.670;8.994;2023-01-13T09:39:28;8.40;99.90
3919;DHT22;1974;48.670;8.994;2023-01-13T09:41:56;8.30;99.90
3919;DHT22;1974;48.670;8.994;2023-01-13T09:44:47;8.20;99.90
3919;DHT22;1974;48.670;8.994;2023-01-13T09:47:21;8.10;99.90
3919;DHT22;1974;48.670;8.994;2023-01-13T09:49:50;8.20;99.90
3919;DHT22;1974;48.670;8.994;2023-01-13T09:52:21;8.10;99.90
3919;DHT22;1974;48.670;8.994;2023-01-13T09:54:52;8.00;99.90
3919;DHT22;1974;48.670;8.994;2023-01-13T09:57:20;8.00;99.90
3919;DHT22;1974;48.670;8.994;2023-01-13T09:59:48;8.00;99.90
3919;DHT22;1974;48.670;8.994;2023-01-13T10:02:27;7.90;99.90
3919;DHT22;1974;48.670;8.994;2023-01-13T10:05:11;7.80;99.90
3919;DHT22;1974;48.670;8.994;2023-01-13T10:07:45;7.80;99.90
3919;DHT22;1974;48.670;8.994;2023-01-13T10:10:17;7.80;99.90
3919;DHT22;1974;48.670;8.994;2023-01-13T10:12:48;7.80;99.90
3919;DHT22;1974;48.670;8.994;2023-01-13T10:15:33;7.80;99.90
3919;DHT22;1974;48.670;8.994;2023-01-13T10:18:07;7.90;99.90
3919;DHT22;1974;48.670;8.994;2023-01-13T10:20:41;8.60;99.90
3919;DHT22;1974;48.670;8.994;2023-01-13T10:23:32;9.20;99.90
3919;DHT22;1974;48.670;8.994;2023-01-13T10:26:10;9.70;99.90
3919;DHT22;1974;48.670;8.994;2023-01-13T10:28:49;9.90;99.90
3919;DHT22;1974;48.670;8.994;2023-01-13T10:31:16;10.00;99.90
3919;DHT22;1974;48.670;8.994;2023-01-13T10:33:44;9.90;99.90
3919;DHT22;1974;48.670;8.994;2023-01-13T10:36:13;9.70;99.90
3919;DHT22;1974;48.670;8.994;2023-01-13T10:38:42;9.70;99.90
3919;DHT22;1974;48.670;8.994;2023-01-13T10:41:18;9.50;99.90
3919;DHT22;1974;48.670;8.994;2023-01-13T10:43:57;9.60;99.90
3919;DHT22;1974;48.670;8.994;2023-01-13T10:46:25;9.50;99.90
3919;DHT22;1974;48.670;8.994;2023-01-13T10:48:54;9.40;99.90
3919;DHT22;1974;48.670;8.994;2023-01-13T10:51:23;9.10;99.90
3919;DHT22;1974;48.670;8.994;2023-01-13T10:53:55;8.90;99.90
3919;DHT22;1974;48.670;8.994;2023-01-13T10:56:24;8.70;99.90
3919;DHT22;1974;48.670;8.994;2023-01-13T10:58:51;8.50;99.90
3919;DHT22;1974;48.670;8.994;2023-01-13T11:01:24;8.20;99.90
3919;DHT22;1974;48.670;8.994;2023-01-13T11:03:53;8.10;99.90
3919;DHT22;1974;48.670;8.994;2023-01-13T11:06:22;7.90;99.90
3919;DHT22;1974;48.670;8.994;2023-01-13T11:08:52;7.80;99.90
3919;DHT22;1974;48.670;8.994;2023-01-13T11:11:39;7.70;99.90
3919;DHT22;1974;48.670;8.994;2023-01-13T11:14:15;7.70;99.90
3919;DHT22;1974;48.670;8.994;2023-01-13T11:17:04;7.70;99.90
3919;DHT22;1974;48.670;8.994;2023-01-13T11:19:36;7.60;99.90
3919;DHT22;1974;48.670;8.994;2023-01-13T11:22:07;7.50;99.90
3919;DHT22;1974;48.670;8.994;2023-01-13T11:24:41;7.50;99.90
3919;DHT22;1974;48.670;8.994;2023-01-13T11:27:13;7.40;99.90
3919;DHT22;1974;48.670;8.994;2023-01-13T11:29:56;7.30;99.90
3919;DHT22;1974;48.670;8.994;2023-01-13T11:32:24;7.20;99.90
3919;DHT22;1974;48.670;8.994;2023-01-13T11:34:56;7.10;99.90
3919;DHT22;1974;48.670;8.994;2023-01-13T11:37:27;7.00;99.90
3919;DHT22;1974;48.670;8.994;2023-01-13T11:40:00;6.90;99.90
3919;DHT22;1974;48.670;8.994;2023-01-13T11:42:35;6.80;99.90
3919;DHT22;1974;48.670;8.994;2023-01-13T11:45:10;6.70;99.90
3919;DHT22;1974;48.670;8.994;2023-01-13T11:47:41;6.60;99.90
3919;DHT22;1974;48.670;8.994;2023-01-13T11:50:15;6.60;99.90
3919;DHT22;1974;48.670;8.994;2023-01-13T11:52:56;6.60;99.90
3919;DHT22;1974;48.670;8.994;2023-01-13T11:55:32;6.70;99.90
3919;DHT22;1974;48.670;8.994;2023-01-13T11:58:31;6.60;99.90
3919;DHT22;1974;48.670;8.994;2023-01-13T12:01:14;6.60;99.90
3919;DHT22;1974;48.670;8.994;2023-01-13T12:03:48;6.70;99.90
3919;DHT22;1974;48.670;8.994;2023-01-13T12:06:28;6.80;99.90
3919;DHT22;1974;48.670;8.994;2023-01-13T12:09:10;6.80;99.90
3919;DHT22;1974;48.670;8.994;2023-01-13T12:11:50;6.90;99.90
3919;DHT22;1974;48.670;8.994;2023-01-13T12:14:44;7.00;99.90
3919;DHT22;1974;48.670;8.994;2023-01-13T12:17:24;7.10;99.90
3919;DHT22;1974;48.670;8.994;2023-01-13T12:19:51;7.10;99.90
3919;DHT22;1974;48.670;8.994;2023-01-13T12:22:22;7.10;99.90
3919;DHT22;1974;48.670;8.994;2023-01-13T12:24:54;7.00;99.90
3919;DHT22;1974;48.670;8.994;2023-01-13T12:27:39;6.90;99.90
3919;DHT22;1974;48.670;8.994;2023-01-13T12:30:21;6.80;99.90
3919;DHT22;1974;48.670;8.994;2023-01-13T12:32:49;6.80;99.90
3919;DHT22;1974;48.670;8.994;2023-01-13T12:35:26;6.80;99.90
3919;DHT22;1974;48.670;8.994;2023-01-13T12:37:59;6.80;99.90
3919;DHT22;1974;48.670;8.994;2023-01-13T12:40:39;6.90;99.90
3919;DHT22;1974;48.670;8.994;2023-01-13T12:43:15;6.90;99.90
3919;DHT22;1974;48.670;8.994;2023-01-13T12:49:05;7.20;99.90
3919;DHT22;1974;48.670;8.994;2023-01-13T12:51:33;7.20;99.90
3919;DHT22;1974;48.670;8.994;2023-01-13T12:54:01;7.10;99.90
3919;DHT22;1974;48.670;8.994;2023-01-13T12:56:36;7.10;99.90
3919;DHT22;1974;48.670;8.994;2023-01-13T13:02:35;6.90;99.90
3919;DHT22;1974;48.670;8.994;2023-01-13T13:05:28;6.80;99.90
3919;DHT22;1974;48.670;8.994;2023-01-13T13:08:04;6.80;99.90
3919;DHT22;1974;48.670;8.994;2023-01-13T13:10:35;6.80;99.90
3919;DHT22;1974;48.670;8.994;2023-01-13T13:13:06;6.90;99.90
3919;DHT22;1974;48.670;8.994;2023-01-13T13:15:46;6.80;99.90
3919;DHT22;1974;48.670;8.994;2023-01-13T13:18:27;6.80;99.90
3919;DHT22;1974;48.670;8.994;2023-01-13T13:20:58;6.80;99.90
3919;DHT22;1974;48.670;8.994;2023-01-13T13:23:26;6.80;99.90
3919;DHT22;1974;48.670;8.994;2023-01-13T13:26:02;6.80;99.90
3919;DHT22;1974;48.670;8.994;2023-01-13T13:28:35;6.80;99.90
3919;DHT22;1974;48.670;8.994;2023-01-13T13:31:17;6.80;99.90
3919;DHT22;1974;48.670;8.994;2023-01-13T13:34:04;6.80;99.90
3919;DHT22;1974;48.670;8.994;2023-01-13T13:36:57;6.90;99.90
3919;DHT22;1974;48.670;8.994;2023-01-13T13:39:29;6.90;99.90
3919;DHT22;1974;48.670;8.994;2023-01-13T13:42:17;6.80;99.90
3919;DHT22;1974;48.670;8.994;2023-01-13T13:45:11;6.90;99.90
3919;DHT22;1974;48.670;8.994;2023-01-13T13:47:58;7.00;99.90
3919;DHT22;1974;48.670;8.994;2023-01-13T13:50:26;7.10;99.90
3919;DHT22;1974;48.670;8.994;2023-01-13T13:53:02;7.20;99.90
3919;DHT22;1974;48.670;8.994;2023-01-13T13:55:30;7.40;99.90
3919;DHT22;1974;48.670;8.994;2023-01-13T13:57:58;7.50;99.90
3919;DHT22;1974;48.670;8.994;2023-01-13T14:00:27;7.60;99.90
3919;DHT22;1974;48.670;8.994;2023-01-13T14:02:57;7.80;99.90
3919;DHT22;1974;48.670;8.994;2023-01-13T14:05:28;7.90;99.90
3919;DHT22;1974;48.670;8.994;2023-01-13T14:07:59;8.00;99.90
3919;DHT22;1974;48.670;8.994;2023-01-13T14:10:31;8.10;99.90
3919;DHT22;1974;48.670;8.994;2023-01-13T14:12:59;8.10;99.90
3919;DHT22;1974;48.670;8.994;2023-01-13T14:15:31;8.10;99.90
3919;DHT22;1974;48.670;8.994;2023-01-13T14:18:00;8.10;99.90
3919;DHT22;1974;48.670;8.994;2023-01-13T14:20:30;8.00;99.90
3919;DHT22;1974;48.670;8.994;2023-01-13T14:22:59;8.00;99.90
3919;DHT22;1974;48.670;8.994;2023-01-13T14:25:32;7.80;99.90
3919;DHT22;1974;48.670;8.994;2023-01-13T14:28:16;7.80;99.90
3919;DHT22;1974;48.670;8.994;2023-01-13T14:30:44;7.60;99.90
3919;DHT22;1974;48.670;8.994;2023-01-13T14:33:14;7.50;99.90
3919;DHT22;1974;48.670;8.994;2023-01-13T14:36:05;7.40;99.90
3919;DHT22;1974;48.670;8.994;2023-01-13T14:38:35;7.30;99.90
3919;DHT22;1974;48.670;8.994;2023-01-13T14:41:11;7.20;99.90
3919;DHT22;1974;48.670;8.994;2023-01-13T14:43:42;7.20;99.90
3919;DHT22;1974;48.670;8.994;2023-01-13T14:46:10;7.10;99.90
3919;DHT22;1974;48.670;8.994;2023-01-13T14:48:37;7.00;99.90
3919;DHT22;1974;48.670;8.994;2023-01-13T14:51:09;6.90;99.90
3919;DHT22;1974;48.670;8.994;2023-01-13T14:53:39;6.80;99.90
3919;DHT22;1974;48.670;8.994;2023-01-13T14:59:45;6.70;99.90
3919;DHT22;1974;48.670;8.994;2023-01-13T15:02:40;6.90;99.90
3919;DHT22;1974;48.670;8.994;2023-01-13T15:05:30;6.90;99.90
3919;DHT22;1974;48.670;8.994;2023-01-13T15:08:01;7.00;99.90
3919;DHT22;1974;48.670;8.994;2023-01-13T15:10:30;7.10;99.90
3919;DHT22;1974;48.670;8.994;2023-01-13T15:12:59;7.10;99.90
3919;DHT22;1974;48.670;8.994;2023-01-13T15:15:28;7.00;99.90
3919;DHT22;1974;48.670;8.994;2023-01-13T15:17:57;7.00;99.90
3919;DHT22;1974;48.670;8.994;2023-01-13T15:20:24;6.90;99.90
3919;DHT22;1974;48.670;8.994;2023-01-13T15:22:52;6.90;99.90
3919;DHT22;1974;48.670;8.994;2023-01-13T15:25:21;6.80;99.90
3919;DHT22;1974;48.670;8.994;2023-01-13T15:27:49;6.70;99.90
3919;DHT22;1974;48.670;8.994;2023-01-13T15:30:19;6.60;99.90
3919;DHT22;1974;48.670;8.994;2023-01-13T15:32:46;6.60;99.90
3919;DHT22;1974;48.670;8.994;2023-01-13T15:35:14;6.40;99.90
3919;DHT22;1974;48.670;8.994;2023-01-13T15:37:42;6.30;99.90
3919;DHT22;1974;48.670;8.994;2023-01-13T15:40:13;6.20;99.90
3919;DHT22;1974;48.670;8.994;2023-01-13T15:42:41;6.10;99.90
3919;DHT22;1974;48.670;8.994;2023-01-13T15:45:25;6.00;99.90
3919;DHT22;1974;48.670;8.994;2023-01-13T15:48:10;5.90;99.90
3919;DHT22;1974;48.670;8.994;2023-01-13T15:50:37;5.80;99.90
3919;DHT22;1974;48.670;8.994;2023-01-13T15:53:04;5.80;99.90
3919;DHT22;1974;48.670;8.994;2023-01-13T15:55:32;5.80;99.90
3919;DHT22;1974;48.670;8.994;2023-01-13T15:58:02;5.70;99.90
3919;DHT22;1974;48.670;8.994;2023-01-13T16:00:29;5.60;99.90
3919;DHT22;1974;48.670;8.994;2023-01-13T16:02:55;5.60;99.90
3919;DHT22;1974;48.670;8.994;2023-01-13T16:05:24;5.60;99.90
3919;DHT22;1974;48.670;8.994;2023-01-13T16:07:51;5.60;99.90
3919;DHT22;1974;48.670;8.994;2023-01-13T16:10:21;5.60;99.90
3919;DHT22;1974;48.670;8.994;2023-01-13T16:12:48;5.50;99.90
3919;DHT22;1974;48.670;8.994;2023-01-13T16:15:18;5.50;99.90
3919;DHT22;1974;48.670;8.994;2023-01-13T16:17:51;5.50;99.90
3919;DHT22;1974;48.670;8.994;2023-01-13T16:20:19;5.50;99.90
3919;DHT22;1974;48.670;8.994;2023-01-13T16:22:46;5.40;99.90
3919;DHT22;1974;48.670;8.994;2023-01-13T16:25:15;5.40;99.90
3919;DHT22;1974;48.670;8.994;2023-01-13T16:27:43;5.40;99.90
3919;DHT22;1974;48.670;8.994;2023-01-13T16:30:26;5.40;99.90
3919;DHT22;1974;48.670;8.994;2023-01-13T16:32:53;5.30;99.90
3919;DHT22;1974;48.670;8.994;2023-01-13T16:35:21;5.30;99.90
3919;DHT22;1974;48.670;8.994;2023-01-13T16:37:48;5.30;99.90
3919;DHT22;1974;48.670;8.994;2023-01-13T16:40:22;5.30;99.90
3919;DHT22;1974;48.670;8.994;2023-01-13T16:42:49;5.20;99.90
3919;DHT22;1974;48.670;8.994;2023-01-13T16:45:16;5.20;99.90
3919;DHT22;1974;48.670;8.994;2023-01-13T16:47:45;5.20;99.90
3919;DHT22;1974;48.670;8.994;2023-01-13T16:50:21;5.20;99.90
3919;DHT22;1974;48.670;8.994;2023-01-13T16:52:53;5.20;99.90
3919;DHT22;1974;48.670;8.994;2023-01-13T16:55:20;5.20;99.90
3919;DHT22;1974;48.670;8.994;2023-01-13T16:57:46;5.10;99.90
3919;DHT22;1974;48.670;8.994;2023-01-13T17:00:14;5.20;99.90